sensor_id;sensor_type;location;lat;lon;timestamp;P1;durP1;ratioP1;P2;durP2;ratioP2
29246;SDS011;16272;48.188;9.964;2023-05-10T00:00:19;5.53;;;2.00;;
29246;SDS011;16272;48.188;9.964;2023-05-10T00:02:47;5.68;;;2.00;;
29246;SDS011;16272;48.188;9.964;2023-05-10T00:05:13;7.23;;;2.10;;
29246;SDS011;16272;48.188;9.964;2023-05-10T00:07:38;5.40;;;1.77;;
29246;SDS011;16272;48.188;9.964;2023-05-10T00:10:03;5.40;;;1.70;;
29246;SDS011;16272;48.188;9.964;2023-05-10T00:12:29;6.20;;;2.13;;
29246;SDS011;16272;48.188;9.964;2023-05-10T00:14:55;5.90;;;2.00;;
29246;SDS011;16272;48.188;9.964;2023-05-10T00:17:21;5.47;;;1.83;;
29246;SDS011;16272;48.188;9.964;2023-05-10T00:19:46;5.63;;;1.80;;
29246;SDS011;16272;48.188;9.964;2023-05-10T00:22:12;5.03;;;1.57;;
29246;SDS011;16272;48.188;9.964;2023-05-10T00:24:37;5.17;;;1.57;;
29246;SDS011;16272;48.188;9.964;2023-05-10T00:27:02;5.93;;;1.60;;
29246;SDS011;16272;48.188;9.964;2023-05-10T00:29:29;5.90;;;1.80;;
29246;SDS011;16272;48.188;9.964;2023-05-10T00:31:54;5.87;;;1.40;;
29246;SDS011;16272;48.188;9.964;2023-05-10T00:34:19;5.63;;;1.55;;
29246;SDS011;16272;48.188;9.964;2023-05-10T00:36:45;6.33;;;1.33;;
29246;SDS011;16272;48.188;9.964;2023-05-10T00:39:10;5.03;;;1.40;;
29246;SDS011;16272;48.188;9.964;2023-05-10T00:41:35;4.80;;;1.30;;
29246;SDS011;16272;48.188;9.964;2023-05-10T00:44:01;8.10;;;1.73;;
29246;SDS011;16272;48.188;9.964;2023-05-10T00:46:27;4.32;;;1.20;;
29246;SDS011;16272;48.188;9.964;2023-05-10T00:48:53;4.93;;;1.20;;
29246;SDS011;16272;48.188;9.964;2023-05-10T00:51:18;5.00;;;1.03;;
29246;SDS011;16272;48.188;9.964;2023-05-10T00:53:47;5.30;;;1.30;;
29246;SDS011;16272;48.188;9.964;2023-05-10T00:56:14;4.90;;;1.23;;
29246;SDS011;16272;48.188;9.964;2023-05-10T00:58:40;3.97;;;1.00;;
29246;SDS011;16272;48.188;9.964;2023-05-10T01:01:06;6.03;;;1.10;;
29246;SDS011;16272;48.188;9.964;2023-05-10T01:03:32;5.03;;;1.02;;
29246;SDS011;16272;48.188;9.964;2023-05-10T01:05:58;5.10;;;0.90;;
29246;SDS011;16272;48.188;9.964;2023-05-10T01:08:24;3.93;;;0.90;;
29246;SDS011;16272;48.188;9.964;2023-05-10T01:10:50;4.80;;;1.00;;
29246;SDS011;16272;48.188;9.964;2023-05-10T01:13:18;4.22;;;1.05;;
29246;SDS011;16272;48.188;9.964;2023-05-10T01:15:55;4.75;;;0.90;;
29246;SDS011;16272;48.188;9.964;2023-05-10T01:18:21;4.13;;;0.90;;
29246;SDS011;16272;48.188;9.964;2023-05-10T01:20:47;5.00;;;1.20;;
29246;SDS011;16272;48.188;9.964;2023-05-10T01:23:24;4.30;;;0.90;;
29246;SDS011;16272;48.188;9.964;2023-05-10T01:34:29;3.73;;;0.70;;
29246;SDS011;16272;48.188;9.964;2023-05-10T01:37:10;3.15;;;0.70;;
29246;SDS011;16272;48.188;9.964;2023-05-10T01:39:42;3.97;;;0.80;;
29246;SDS011;16272;48.188;9.964;2023-05-10T01:42:14;3.05;;;0.68;;
29246;SDS011;16272;48.188;9.964;2023-05-10T01:47:17;4.17;;;0.60;;
29246;SDS011;16272;48.188;9.964;2023-05-10T01:50:02;2.60;;;0.60;;
29246;SDS011;16272;48.188;9.964;2023-05-10T01:52:36;3.05;;;0.70;;
29246;SDS011;16272;48.188;9.964;2023-05-10T01:55:06;3.15;;;0.75;;
29246;SDS011;16272;48.188;9.964;2023-05-10T01:57:34;3.42;;;0.70;;
29246;SDS011;16272;48.188;9.964;2023-05-10T02:00:02;3.33;;;0.60;;
29246;SDS011;16272;48.188;9.964;2023-05-10T02:02:29;3.70;;;0.60;;
29246;SDS011;16272;48.188;9.964;2023-05-10T02:04:59;2.90;;;0.70;;
29246;SDS011;16272;48.188;9.964;2023-05-10T02:07:24;3.53;;;0.77;;
29246;SDS011;16272;48.188;9.964;2023-05-10T02:09:53;3.92;;;0.80;;
29246;SDS011;16272;48.188;9.964;2023-05-10T02:12:19;4.28;;;1.02;;
29246;SDS011;16272;48.188;9.964;2023-05-10T02:14:46;4.50;;;0.70;;
29246;SDS011;16272;48.188;9.964;2023-05-10T02:17:12;3.38;;;0.70;;
29246;SDS011;16272;48.188;9.964;2023-05-10T02:19:40;5.07;;;0.80;;
29246;SDS011;16272;48.188;9.964;2023-05-10T02:22:06;3.95;;;0.80;;
29246;SDS011;16272;48.188;9.964;2023-05-10T02:24:34;3.40;;;0.60;;
29246;SDS011;16272;48.188;9.964;2023-05-10T02:27:01;2.67;;;0.50;;
29246;SDS011;16272;48.188;9.964;2023-05-10T02:29:28;3.75;;;0.85;;
29246;SDS011;16272;48.188;9.964;2023-05-10T02:31:56;3.17;;;0.70;;
29246;SDS011;16272;48.188;9.964;2023-05-10T02:34:23;4.03;;;0.82;;
29246;SDS011;16272;48.188;9.964;2023-05-10T02:36:51;3.05;;;0.73;;
29246;SDS011;16272;48.188;9.964;2023-05-10T02:39:17;3.45;;;0.85;;
29246;SDS011;16272;48.188;9.964;2023-05-10T02:41:44;3.72;;;0.82;;
29246;SDS011;16272;48.188;9.964;2023-05-10T02:44:11;3.87;;;0.70;;
29246;SDS011;16272;48.188;9.964;2023-05-10T02:46:39;3.10;;;0.60;;
29246;SDS011;16272;48.188;9.964;2023-05-10T02:49:04;3.53;;;0.80;;
29246;SDS011;16272;48.188;9.964;2023-05-10T02:51:31;3.83;;;0.77;;
29246;SDS011;16272;48.188;9.964;2023-05-10T02:54:33;4.13;;;0.80;;
29246;SDS011;16272;48.188;9.964;2023-05-10T02:56:56;3.55;;;0.75;;
29246;SDS011;16272;48.188;9.964;2023-05-10T02:59:25;4.82;;;0.75;;
29246;SDS011;16272;48.188;9.964;2023-05-10T03:01:51;3.73;;;0.83;;
29246;SDS011;16272;48.188;9.964;2023-05-10T03:04:16;4.00;;;0.80;;
29246;SDS011;16272;48.188;9.964;2023-05-10T03:06:41;3.47;;;0.70;;
29246;SDS011;16272;48.188;9.964;2023-05-10T03:09:07;3.22;;;0.70;;
29246;SDS011;16272;48.188;9.964;2023-05-10T03:17:17;3.63;;;0.90;;
29246;SDS011;16272;48.188;9.964;2023-05-10T03:19:58;4.07;;;0.80;;
29246;SDS011;16272;48.188;9.964;2023-05-10T03:22:51;3.25;;;0.75;;
29246;SDS011;16272;48.188;9.964;2023-05-10T03:25:21;2.80;;;0.70;;
29246;SDS011;16272;48.188;9.964;2023-05-10T03:27:47;2.50;;;0.50;;
29246;SDS011;16272;48.188;9.964;2023-05-10T03:30:14;3.67;;;0.77;;
29246;SDS011;16272;48.188;9.964;2023-05-10T03:32:39;3.28;;;0.65;;
29246;SDS011;16272;48.188;9.964;2023-05-10T03:35:08;2.83;;;0.60;;
29246;SDS011;16272;48.188;9.964;2023-05-10T03:37:34;2.78;;;0.85;;
29246;SDS011;16272;48.188;9.964;2023-05-10T03:39:59;3.00;;;0.80;;
29246;SDS011;16272;48.188;9.964;2023-05-10T03:42:25;3.10;;;0.80;;
29246;SDS011;16272;48.188;9.964;2023-05-10T03:44:50;3.13;;;0.80;;
29246;SDS011;16272;48.188;9.964;2023-05-10T03:47:15;3.03;;;0.73;;
29246;SDS011;16272;48.188;9.964;2023-05-10T03:49:41;3.90;;;0.73;;
29246;SDS011;16272;48.188;9.964;2023-05-10T03:52:06;4.33;;;0.90;;
29246;SDS011;16272;48.188;9.964;2023-05-10T03:54:31;3.20;;;0.80;;
29246;SDS011;16272;48.188;9.964;2023-05-10T03:56:57;3.93;;;0.83;;
29246;SDS011;16272;48.188;9.964;2023-05-10T03:59:22;2.83;;;0.60;;
29246;SDS011;16272;48.188;9.964;2023-05-10T04:01:47;3.83;;;0.55;;
29246;SDS011;16272;48.188;9.964;2023-05-10T04:04:13;3.10;;;0.80;;
29246;SDS011;16272;48.188;9.964;2023-05-10T04:06:38;3.73;;;0.70;;
29246;SDS011;16272;48.188;9.964;2023-05-10T04:09:03;2.83;;;0.63;;
29246;SDS011;16272;48.188;9.964;2023-05-10T04:11:29;4.50;;;0.70;;
29246;SDS011;16272;48.188;9.964;2023-05-10T04:13:55;3.25;;;0.65;;
29246;SDS011;16272;48.188;9.964;2023-05-10T04:16:20;3.60;;;0.67;;
29246;SDS011;16272;48.188;9.964;2023-05-10T04:18:45;2.53;;;0.60;;
29246;SDS011;16272;48.188;9.964;2023-05-10T04:21:11;3.20;;;0.60;;
29246;SDS011;16272;48.188;9.964;2023-05-10T04:23:38;3.65;;;0.75;;
29246;SDS011;16272;48.188;9.964;2023-05-10T04:26:03;3.53;;;0.67;;
29246;SDS011;16272;48.188;9.964;2023-05-10T04:28:29;3.77;;;0.93;;
29246;SDS011;16272;48.188;9.964;2023-05-10T04:31:00;3.43;;;0.70;;
29246;SDS011;16272;48.188;9.964;2023-05-10T04:33:29;4.78;;;0.90;;
29246;SDS011;16272;48.188;9.964;2023-05-10T04:35:54;3.33;;;0.70;;
29246;SDS011;16272;48.188;9.964;2023-05-10T04:38:19;3.25;;;0.80;;
29246;SDS011;16272;48.188;9.964;2023-05-10T04:40:45;2.97;;;0.70;;
29246;SDS011;16272;48.188;9.964;2023-05-10T04:43:10;4.30;;;0.70;;
29246;SDS011;16272;48.188;9.964;2023-05-10T04:45:35;6.07;;;0.93;;
29246;SDS011;16272;48.188;9.964;2023-05-10T04:48:01;3.87;;;0.80;;
29246;SDS011;16272;48.188;9.964;2023-05-10T04:50:26;3.23;;;0.90;;
29246;SDS011;16272;48.188;9.964;2023-05-10T04:52:51;4.07;;;0.90;;
29246;SDS011;16272;48.188;9.964;2023-05-10T04:55:16;5.10;;;0.87;;
29246;SDS011;16272;48.188;9.964;2023-05-10T04:57:42;4.40;;;0.90;;
29246;SDS011;16272;48.188;9.964;2023-05-10T05:00:07;4.70;;;1.00;;
29246;SDS011;16272;48.188;9.964;2023-05-10T05:02:33;3.75;;;0.80;;
29246;SDS011;16272;48.188;9.964;2023-05-10T05:04:58;4.87;;;1.00;;
29246;SDS011;16272;48.188;9.964;2023-05-10T05:07:23;3.37;;;0.70;;
29246;SDS011;16272;48.188;9.964;2023-05-10T05:09:50;4.00;;;0.90;;
29246;SDS011;16272;48.188;9.964;2023-05-10T05:12:15;3.90;;;1.00;;
29246;SDS011;16272;48.188;9.964;2023-05-10T05:14:40;4.07;;;0.80;;
29246;SDS011;16272;48.188;9.964;2023-05-10T05:17:06;3.78;;;0.82;;
29246;SDS011;16272;48.188;9.964;2023-05-10T05:19:31;3.33;;;0.80;;
29246;SDS011;16272;48.188;9.964;2023-05-10T05:21:57;4.67;;;1.00;;
29246;SDS011;16272;48.188;9.964;2023-05-10T05:24:22;3.80;;;0.90;;
29246;SDS011;16272;48.188;9.964;2023-05-10T05:26:48;3.35;;;0.90;;
29246;SDS011;16272;48.188;9.964;2023-05-10T05:29:13;3.80;;;1.10;;
29246;SDS011;16272;48.188;9.964;2023-05-10T05:31:39;4.00;;;1.00;;
29246;SDS011;16272;48.188;9.964;2023-05-10T05:34:04;4.13;;;0.70;;
29246;SDS011;16272;48.188;9.964;2023-05-10T05:36:29;4.32;;;1.13;;
29246;SDS011;16272;48.188;9.964;2023-05-10T05:38:56;4.33;;;1.07;;
29246;SDS011;16272;48.188;9.964;2023-05-10T05:41:22;4.97;;;0.70;;
29246;SDS011;16272;48.188;9.964;2023-05-10T05:43:48;4.40;;;0.90;;
29246;SDS011;16272;48.188;9.964;2023-05-10T05:46:14;4.37;;;1.10;;
29246;SDS011;16272;48.188;9.964;2023-05-10T05:48:39;4.07;;;0.90;;
29246;SDS011;16272;48.188;9.964;2023-05-10T05:51:04;3.60;;;0.90;;
29246;SDS011;16272;48.188;9.964;2023-05-10T05:53:30;3.90;;;1.07;;
29246;SDS011;16272;48.188;9.964;2023-05-10T05:55:55;3.87;;;0.87;;
29246;SDS011;16272;48.188;9.964;2023-05-10T05:58:22;5.22;;;1.00;;
29246;SDS011;16272;48.188;9.964;2023-05-10T06:00:48;4.50;;;1.00;;
29246;SDS011;16272;48.188;9.964;2023-05-10T06:03:14;3.90;;;0.87;;
29246;SDS011;16272;48.188;9.964;2023-05-10T06:05:39;5.85;;;1.20;;
29246;SDS011;16272;48.188;9.964;2023-05-10T06:08:05;4.97;;;1.10;;
29246;SDS011;16272;48.188;9.964;2023-05-10T06:10:30;4.00;;;1.07;;
29246;SDS011;16272;48.188;9.964;2023-05-10T06:12:55;4.03;;;1.00;;
29246;SDS011;16272;48.188;9.964;2023-05-10T06:15:21;6.47;;;0.90;;
29246;SDS011;16272;48.188;9.964;2023-05-10T06:17:46;3.80;;;0.90;;
29246;SDS011;16272;48.188;9.964;2023-05-10T06:20:14;3.40;;;0.87;;
29246;SDS011;16272;48.188;9.964;2023-05-10T06:22:40;3.90;;;1.13;;
29246;SDS011;16272;48.188;9.964;2023-05-10T06:25:05;4.03;;;0.90;;
29246;SDS011;16272;48.188;9.964;2023-05-10T06:27:31;4.22;;;1.13;;
29246;SDS011;16272;48.188;9.964;2023-05-10T06:29:56;5.90;;;1.33;;
29246;SDS011;16272;48.188;9.964;2023-05-10T06:32:21;4.30;;;1.20;;
29246;SDS011;16272;48.188;9.964;2023-05-10T06:34:47;4.73;;;1.20;;
29246;SDS011;16272;48.188;9.964;2023-05-10T06:37:12;4.90;;;1.10;;
29246;SDS011;16272;48.188;9.964;2023-05-10T06:39:37;4.07;;;1.15;;
29246;SDS011;16272;48.188;9.964;2023-05-10T06:42:03;3.70;;;0.90;;
29246;SDS011;16272;48.188;9.964;2023-05-10T06:44:29;4.35;;;1.10;;
29246;SDS011;16272;48.188;9.964;2023-05-10T06:46:54;5.33;;;1.30;;
29246;SDS011;16272;48.188;9.964;2023-05-10T06:49:20;4.47;;;1.17;;
29246;SDS011;16272;48.188;9.964;2023-05-10T06:51:46;4.40;;;1.07;;
29246;SDS011;16272;48.188;9.964;2023-05-10T06:54:11;4.93;;;1.07;;
29246;SDS011;16272;48.188;9.964;2023-05-10T06:56:36;4.87;;;1.40;;
29246;SDS011;16272;48.188;9.964;2023-05-10T06:59:02;4.60;;;1.30;;
29246;SDS011;16272;48.188;9.964;2023-05-10T07:01:28;5.70;;;1.50;;
29246;SDS011;16272;48.188;9.964;2023-05-10T07:03:53;5.20;;;1.70;;
29246;SDS011;16272;48.188;9.964;2023-05-10T07:06:18;7.77;;;1.60;;
29246;SDS011;16272;48.188;9.964;2023-05-10T07:08:44;4.60;;;1.30;;
29246;SDS011;16272;48.188;9.964;2023-05-10T07:11:09;4.87;;;1.40;;
29246;SDS011;16272;48.188;9.964;2023-05-10T07:13:37;4.83;;;1.43;;
29246;SDS011;16272;48.188;9.964;2023-05-10T07:16:04;5.70;;;1.35;;
29246;SDS011;16272;48.188;9.964;2023-05-10T07:18:31;4.75;;;1.20;;
29246;SDS011;16272;48.188;9.964;2023-05-10T07:20:56;5.37;;;1.20;;
29246;SDS011;16272;48.188;9.964;2023-05-10T07:23:22;5.85;;;1.30;;
29246;SDS011;16272;48.188;9.964;2023-05-10T07:25:47;4.70;;;1.30;;
29246;SDS011;16272;48.188;9.964;2023-05-10T07:28:14;3.97;;;1.10;;
29246;SDS011;16272;48.188;9.964;2023-05-10T07:30:41;4.80;;;1.00;;
29246;SDS011;16272;48.188;9.964;2023-05-10T07:33:07;4.70;;;1.20;;
29246;SDS011;16272;48.188;9.964;2023-05-10T07:35:34;4.18;;;1.20;;
29246;SDS011;16272;48.188;9.964;2023-05-10T07:37:59;4.23;;;1.17;;
29246;SDS011;16272;48.188;9.964;2023-05-10T07:40:25;3.85;;;1.00;;
29246;SDS011;16272;48.188;9.964;2023-05-10T07:42:50;3.93;;;0.80;;
29246;SDS011;16272;48.188;9.964;2023-05-10T07:45:16;5.20;;;1.17;;
29246;SDS011;16272;48.188;9.964;2023-05-10T07:47:41;4.60;;;1.20;;
29246;SDS011;16272;48.188;9.964;2023-05-10T07:50:07;3.97;;;1.03;;
29246;SDS011;16272;48.188;9.964;2023-05-10T07:52:32;5.00;;;1.30;;
29246;SDS011;16272;48.188;9.964;2023-05-10T07:54:58;4.97;;;1.20;;
29246;SDS011;16272;48.188;9.964;2023-05-10T07:57:23;4.13;;;1.03;;
29246;SDS011;16272;48.188;9.964;2023-05-10T07:59:48;5.10;;;1.37;;
29246;SDS011;16272;48.188;9.964;2023-05-10T08:02:13;6.07;;;1.20;;
29246;SDS011;16272;48.188;9.964;2023-05-10T08:04:39;4.93;;;1.10;;
29246;SDS011;16272;48.188;9.964;2023-05-10T08:07:04;5.30;;;1.30;;
29246;SDS011;16272;48.188;9.964;2023-05-10T08:09:29;5.20;;;1.40;;
29246;SDS011;16272;48.188;9.964;2023-05-10T08:11:55;4.50;;;1.20;;
29246;SDS011;16272;48.188;9.964;2023-05-10T08:14:20;4.15;;;1.17;;
29246;SDS011;16272;48.188;9.964;2023-05-10T08:16:46;4.27;;;1.03;;
29246;SDS011;16272;48.188;9.964;2023-05-10T08:19:11;5.20;;;1.20;;
29246;SDS011;16272;48.188;9.964;2023-05-10T08:21:36;4.10;;;1.17;;
29246;SDS011;16272;48.188;9.964;2023-05-10T08:24:02;4.57;;;1.00;;
29246;SDS011;16272;48.188;9.964;2023-05-10T08:26:27;4.70;;;1.07;;
29246;SDS011;16272;48.188;9.964;2023-05-10T08:28:53;4.93;;;1.30;;
29246;SDS011;16272;48.188;9.964;2023-05-10T08:31:18;4.77;;;1.00;;
29246;SDS011;16272;48.188;9.964;2023-05-10T08:33:43;4.30;;;1.13;;
29246;SDS011;16272;48.188;9.964;2023-05-10T08:36:09;6.20;;;1.40;;
29246;SDS011;16272;48.188;9.964;2023-05-10T08:38:34;4.18;;;0.90;;
29246;SDS011;16272;48.188;9.964;2023-05-10T08:41:00;4.20;;;1.00;;
29246;SDS011;16272;48.188;9.964;2023-05-10T08:43:27;5.40;;;1.00;;
29246;SDS011;16272;48.188;9.964;2023-05-10T08:45:54;4.45;;;1.08;;
29246;SDS011;16272;48.188;9.964;2023-05-10T08:48:20;3.87;;;1.03;;
29246;SDS011;16272;48.188;9.964;2023-05-10T08:50:49;4.32;;;0.90;;
29246;SDS011;16272;48.188;9.964;2023-05-10T08:53:17;4.72;;;1.00;;
29246;SDS011;16272;48.188;9.964;2023-05-10T08:55:44;5.00;;;1.45;;
29246;SDS011;16272;48.188;9.964;2023-05-10T08:58:10;4.20;;;1.30;;
29246;SDS011;16272;48.188;9.964;2023-05-10T09:00:36;4.30;;;1.23;;
29246;SDS011;16272;48.188;9.964;2023-05-10T09:03:05;3.60;;;1.10;;
29246;SDS011;16272;48.188;9.964;2023-05-10T09:05:31;3.73;;;1.10;;
29246;SDS011;16272;48.188;9.964;2023-05-10T09:07:57;4.07;;;1.40;;
29246;SDS011;16272;48.188;9.964;2023-05-10T09:10:25;4.03;;;1.17;;
29246;SDS011;16272;48.188;9.964;2023-05-10T09:12:52;4.80;;;1.27;;
29246;SDS011;16272;48.188;9.964;2023-05-10T09:15:20;4.37;;;1.20;;
29246;SDS011;16272;48.188;9.964;2023-05-10T09:17:46;4.93;;;0.90;;
29246;SDS011;16272;48.188;9.964;2023-05-10T09:20:12;3.85;;;1.00;;
29246;SDS011;16272;48.188;9.964;2023-05-10T09:22:37;4.57;;;1.00;;
29246;SDS011;16272;48.188;9.964;2023-05-10T09:25:07;4.10;;;1.13;;
29246;SDS011;16272;48.188;9.964;2023-05-10T09:27:35;3.80;;;1.00;;
29246;SDS011;16272;48.188;9.964;2023-05-10T09:30:02;3.30;;;0.90;;
29246;SDS011;16272;48.188;9.964;2023-05-10T09:32:38;5.25;;;1.20;;
29246;SDS011;16272;48.188;9.964;2023-05-10T09:35:11;3.97;;;1.07;;
29246;SDS011;16272;48.188;9.964;2023-05-10T09:37:41;4.03;;;1.17;;
29246;SDS011;16272;48.188;9.964;2023-05-10T09:40:11;4.30;;;1.25;;
29246;SDS011;16272;48.188;9.964;2023-05-10T09:42:38;4.35;;;1.20;;
29246;SDS011;16272;48.188;9.964;2023-05-10T09:45:04;4.37;;;1.20;;
29246;SDS011;16272;48.188;9.964;2023-05-10T09:47:34;4.47;;;1.02;;
29246;SDS011;16272;48.188;9.964;2023-05-10T09:50:01;4.45;;;1.08;;
29246;SDS011;16272;48.188;9.964;2023-05-10T09:52:28;3.70;;;0.93;;
29246;SDS011;16272;48.188;9.964;2023-05-10T09:55:11;3.72;;;1.10;;
29246;SDS011;16272;48.188;9.964;2023-05-10T09:57:37;5.22;;;1.13;;
29246;SDS011;16272;48.188;9.964;2023-05-10T10:00:02;4.37;;;1.20;;
29246;SDS011;16272;48.188;9.964;2023-05-10T10:02:31;4.35;;;1.30;;
29246;SDS011;16272;48.188;9.964;2023-05-10T10:04:56;3.60;;;1.00;;
29246;SDS011;16272;48.188;9.964;2023-05-10T10:07:22;4.55;;;1.10;;
29246;SDS011;16272;48.188;9.964;2023-05-10T10:09:49;4.50;;;1.00;;
29246;SDS011;16272;48.188;9.964;2023-05-10T10:12:15;3.65;;;1.00;;
29246;SDS011;16272;48.188;9.964;2023-05-10T10:14:40;4.13;;;1.13;;
29246;SDS011;16272;48.188;9.964;2023-05-10T10:17:06;6.20;;;1.17;;
29246;SDS011;16272;48.188;9.964;2023-05-10T10:19:33;4.18;;;0.70;;
29246;SDS011;16272;48.188;9.964;2023-05-10T10:22:00;2.87;;;0.90;;
29246;SDS011;16272;48.188;9.964;2023-05-10T10:24:25;2.53;;;0.80;;
29246;SDS011;16272;48.188;9.964;2023-05-10T10:26:51;3.40;;;1.00;;
29246;SDS011;16272;48.188;9.964;2023-05-10T10:29:25;3.28;;;0.90;;
29246;SDS011;16272;48.188;9.964;2023-05-10T10:32:06;2.80;;;0.70;;
29246;SDS011;16272;48.188;9.964;2023-05-10T10:34:41;3.33;;;0.80;;
29246;SDS011;16272;48.188;9.964;2023-05-10T10:37:07;4.23;;;0.83;;
29246;SDS011;16272;48.188;9.964;2023-05-10T10:39:32;2.97;;;0.70;;
29246;SDS011;16272;48.188;9.964;2023-05-10T10:41:58;2.50;;;0.70;;
29246;SDS011;16272;48.188;9.964;2023-05-10T10:52:31;4.00;;;1.00;;
29246;SDS011;16272;48.188;9.964;2023-05-10T10:57:26;4.75;;;1.00;;
29246;SDS011;16272;48.188;9.964;2023-05-10T11:00:03;4.10;;;0.90;;
29246;SDS011;16272;48.188;9.964;2023-05-10T11:02:56;5.38;;;1.00;;
29246;SDS011;16272;48.188;9.964;2023-05-10T11:05:36;5.85;;;1.20;;
29246;SDS011;16272;48.188;9.964;2023-05-10T11:08:14;4.60;;;1.00;;
29246;SDS011;16272;48.188;9.964;2023-05-10T11:10:51;4.18;;;0.93;;
29246;SDS011;16272;48.188;9.964;2023-05-10T11:13:31;3.80;;;1.00;;
29246;SDS011;16272;48.188;9.964;2023-05-10T11:18:38;4.18;;;1.08;;
29246;SDS011;16272;48.188;9.964;2023-05-10T11:21:04;4.60;;;1.30;;
29246;SDS011;16272;48.188;9.964;2023-05-10T11:26:08;4.50;;;1.05;;
29246;SDS011;16272;48.188;9.964;2023-05-10T11:28:34;4.45;;;1.00;;
29246;SDS011;16272;48.188;9.964;2023-05-10T11:31:07;4.13;;;1.13;;
29246;SDS011;16272;48.188;9.964;2023-05-10T11:33:42;4.45;;;1.13;;
29246;SDS011;16272;48.188;9.964;2023-05-10T11:36:11;3.90;;;1.00;;
29246;SDS011;16272;48.188;9.964;2023-05-10T11:38:40;3.95;;;1.15;;
29246;SDS011;16272;48.188;9.964;2023-05-10T11:41:09;3.90;;;1.10;;
29246;SDS011;16272;48.188;9.964;2023-05-10T11:43:37;3.80;;;0.85;;
29246;SDS011;16272;48.188;9.964;2023-05-10T11:46:07;4.68;;;1.10;;
29246;SDS011;16272;48.188;9.964;2023-05-10T11:48:34;3.77;;;0.90;;
29246;SDS011;16272;48.188;9.964;2023-05-10T11:51:00;4.82;;;1.40;;
29246;SDS011;16272;48.188;9.964;2023-05-10T11:53:27;4.45;;;1.00;;
29246;SDS011;16272;48.188;9.964;2023-05-10T11:55:53;4.07;;;1.00;;
29246;SDS011;16272;48.188;9.964;2023-05-10T11:58:18;4.10;;;1.13;;
29246;SDS011;16272;48.188;9.964;2023-05-10T12:00:44;4.80;;;0.97;;
29246;SDS011;16272;48.188;9.964;2023-05-10T12:03:10;4.35;;;1.00;;
29246;SDS011;16272;48.188;9.964;2023-05-10T12:05:36;5.30;;;1.23;;
29246;SDS011;16272;48.188;9.964;2023-05-10T12:08:15;3.87;;;1.10;;
29246;SDS011;16272;48.188;9.964;2023-05-10T12:10:44;3.77;;;0.97;;
29246;SDS011;16272;48.188;9.964;2023-05-10T12:13:13;4.23;;;1.07;;
29246;SDS011;16272;48.188;9.964;2023-05-10T12:15:39;4.97;;;1.30;;
29246;SDS011;16272;48.188;9.964;2023-05-10T12:18:05;5.07;;;1.30;;
29246;SDS011;16272;48.188;9.964;2023-05-10T12:20:31;4.57;;;1.10;;
29246;SDS011;16272;48.188;9.964;2023-05-10T12:22:57;5.03;;;1.33;;
29246;SDS011;16272;48.188;9.964;2023-05-10T12:25:24;4.60;;;0.98;;
29246;SDS011;16272;48.188;9.964;2023-05-10T12:27:55;3.92;;;1.15;;
29246;SDS011;16272;48.188;9.964;2023-05-10T12:30:26;4.37;;;1.10;;
29246;SDS011;16272;48.188;9.964;2023-05-10T12:32:53;3.25;;;0.98;;
29246;SDS011;16272;48.188;9.964;2023-05-10T12:35:19;4.45;;;1.00;;
29246;SDS011;16272;48.188;9.964;2023-05-10T12:37:49;4.30;;;1.00;;
29246;SDS011;16272;48.188;9.964;2023-05-10T12:40:15;4.53;;;1.05;;
29246;SDS011;16272;48.188;9.964;2023-05-10T12:42:41;3.47;;;0.80;;
29246;SDS011;16272;48.188;9.964;2023-05-10T12:45:07;5.00;;;1.00;;
29246;SDS011;16272;48.188;9.964;2023-05-10T12:47:33;3.47;;;0.90;;
29246;SDS011;16272;48.188;9.964;2023-05-10T12:49:59;4.80;;;1.00;;
29246;SDS011;16272;48.188;9.964;2023-05-10T12:52:26;4.00;;;0.98;;
29246;SDS011;16272;48.188;9.964;2023-05-10T12:54:52;3.50;;;0.80;;
29246;SDS011;16272;48.188;9.964;2023-05-10T12:57:17;4.70;;;1.10;;
29246;SDS011;16272;48.188;9.964;2023-05-10T12:59:43;6.47;;;1.00;;
29246;SDS011;16272;48.188;9.964;2023-05-10T13:02:08;4.80;;;1.00;;
29246;SDS011;16272;48.188;9.964;2023-05-10T13:04:34;3.92;;;1.10;;
29246;SDS011;16272;48.188;9.964;2023-05-10T13:07:02;4.20;;;1.00;;
29246;SDS011;16272;48.188;9.964;2023-05-10T13:09:27;4.13;;;0.90;;
29246;SDS011;16272;48.188;9.964;2023-05-10T13:11:55;4.30;;;1.00;;
29246;SDS011;16272;48.188;9.964;2023-05-10T13:14:21;4.60;;;1.02;;
29246;SDS011;16272;48.188;9.964;2023-05-10T13:16:46;4.50;;;1.23;;
29246;SDS011;16272;48.188;9.964;2023-05-10T13:19:12;3.70;;;0.90;;
29246;SDS011;16272;48.188;9.964;2023-05-10T13:21:38;4.53;;;1.10;;
29246;SDS011;16272;48.188;9.964;2023-05-10T13:24:07;3.60;;;1.00;;
29246;SDS011;16272;48.188;9.964;2023-05-10T13:26:33;5.20;;;0.95;;
29246;SDS011;16272;48.188;9.964;2023-05-10T13:28:58;4.87;;;1.20;;
29246;SDS011;16272;48.188;9.964;2023-05-10T13:31:24;4.75;;;1.17;;
29246;SDS011;16272;48.188;9.964;2023-05-10T13:33:50;4.70;;;1.15;;
29246;SDS011;16272;48.188;9.964;2023-05-10T13:36:15;4.60;;;1.00;;
29246;SDS011;16272;48.188;9.964;2023-05-10T13:38:41;4.30;;;1.10;;
29246;SDS011;16272;48.188;9.964;2023-05-10T13:41:06;5.17;;;1.03;;
29246;SDS011;16272;48.188;9.964;2023-05-10T13:43:31;5.47;;;1.20;;
29246;SDS011;16272;48.188;9.964;2023-05-10T13:45:57;4.87;;;1.17;;
29246;SDS011;16272;48.188;9.964;2023-05-10T13:48:22;3.37;;;0.90;;
29246;SDS011;16272;48.188;9.964;2023-05-10T13:50:47;6.00;;;0.83;;
29246;SDS011;16272;48.188;9.964;2023-05-10T13:53:13;3.53;;;0.83;;
29246;SDS011;16272;48.188;9.964;2023-05-10T13:55:39;3.42;;;0.82;;
29246;SDS011;16272;48.188;9.964;2023-05-10T13:58:04;4.57;;;1.13;;
29246;SDS011;16272;48.188;9.964;2023-05-10T14:00:30;3.80;;;0.90;;
29246;SDS011;16272;48.188;9.964;2023-05-10T14:02:55;4.43;;;1.17;;
29246;SDS011;16272;48.188;9.964;2023-05-10T14:05:21;4.40;;;1.05;;
29246;SDS011;16272;48.188;9.964;2023-05-10T14:07:46;4.07;;;1.07;;
29246;SDS011;16272;48.188;9.964;2023-05-10T14:10:12;4.47;;;1.00;;
29246;SDS011;16272;48.188;9.964;2023-05-10T14:12:37;3.67;;;0.85;;
29246;SDS011;16272;48.188;9.964;2023-05-10T14:15:03;5.07;;;1.10;;
29246;SDS011;16272;48.188;9.964;2023-05-10T14:17:30;5.30;;;1.10;;
29246;SDS011;16272;48.188;9.964;2023-05-10T14:19:56;4.38;;;0.90;;
29246;SDS011;16272;48.188;9.964;2023-05-10T14:22:21;4.70;;;0.97;;
29246;SDS011;16272;48.188;9.964;2023-05-10T14:24:47;5.43;;;1.35;;
29246;SDS011;16272;48.188;9.964;2023-05-10T14:27:13;4.63;;;1.00;;
29246;SDS011;16272;48.188;9.964;2023-05-10T14:29:38;4.30;;;1.20;;
29246;SDS011;16272;48.188;9.964;2023-05-10T14:32:03;3.67;;;0.90;;
29246;SDS011;16272;48.188;9.964;2023-05-10T14:34:29;6.60;;;1.40;;
29246;SDS011;16272;48.188;9.964;2023-05-10T14:36:54;6.05;;;1.65;;
29246;SDS011;16272;48.188;9.964;2023-05-10T14:39:20;6.00;;;1.20;;
29246;SDS011;16272;48.188;9.964;2023-05-10T14:41:45;6.63;;;1.17;;
29246;SDS011;16272;48.188;9.964;2023-05-10T14:44:12;5.90;;;1.40;;
29246;SDS011;16272;48.188;9.964;2023-05-10T14:46:37;4.37;;;1.30;;
29246;SDS011;16272;48.188;9.964;2023-05-10T14:49:03;5.00;;;1.20;;
29246;SDS011;16272;48.188;9.964;2023-05-10T14:51:28;4.90;;;1.30;;
29246;SDS011;16272;48.188;9.964;2023-05-10T14:53:54;6.07;;;1.27;;
29246;SDS011;16272;48.188;9.964;2023-05-10T14:56:19;4.13;;;1.10;;
29246;SDS011;16272;48.188;9.964;2023-05-10T14:58:45;4.68;;;1.00;;
29246;SDS011;16272;48.188;9.964;2023-05-10T15:01:10;5.20;;;1.03;;
29246;SDS011;16272;48.188;9.964;2023-05-10T15:03:36;4.17;;;1.10;;
29246;SDS011;16272;48.188;9.964;2023-05-10T15:06:01;4.25;;;1.20;;
29246;SDS011;16272;48.188;9.964;2023-05-10T15:08:26;3.80;;;1.00;;
29246;SDS011;16272;48.188;9.964;2023-05-10T15:10:52;5.20;;;1.10;;
29246;SDS011;16272;48.188;9.964;2023-05-10T15:13:20;4.22;;;1.00;;
29246;SDS011;16272;48.188;9.964;2023-05-10T15:15:45;3.87;;;1.03;;
29246;SDS011;16272;48.188;9.964;2023-05-10T15:18:10;5.10;;;1.40;;